sensor_id;sensor_type;location;lat;lon;timestamp;P1;durP1;ratioP1;P2;durP2;ratioP2
42832;SDS011;64089;51.478;5.692;2023-12-20T00:00:55;15.27;;;4.85;;
42832;SDS011;64089;51.478;5.692;2023-12-20T00:03:20;17.05;;;5.45;;
42832;SDS011;64089;51.478;5.692;2023-12-20T00:05:47;14.55;;;4.68;;
42832;SDS011;64089;51.478;5.692;2023-12-20T00:08:12;12.57;;;5.10;;
42832;SDS011;64089;51.478;5.692;2023-12-20T00:10:38;9.43;;;4.32;;
42832;SDS011;64089;51.478;5.692;2023-12-20T00:13:04;18.63;;;4.97;;
42832;SDS011;64089;51.478;5.692;2023-12-20T00:15:30;11.27;;;4.13;;
42832;SDS011;64089;51.478;5.692;2023-12-20T00:17:55;11.38;;;3.42;;
42832;SDS011;64089;51.478;5.692;2023-12-20T00:20:21;11.90;;;3.40;;
42832;SDS011;64089;51.478;5.692;2023-12-20T00:22:46;9.68;;;3.28;;
42832;SDS011;64089;51.478;5.692;2023-12-20T00:25:12;6.88;;;3.53;;
42832;SDS011;64089;51.478;5.692;2023-12-20T00:27:38;9.23;;;3.08;;
42832;SDS011;64089;51.478;5.692;2023-12-20T00:30:03;17.02;;;3.65;;
42832;SDS011;64089;51.478;5.692;2023-12-20T00:32:29;12.50;;;4.35;;
42832;SDS011;64089;51.478;5.692;2023-12-20T00:34:55;12.68;;;3.35;;
42832;SDS011;64089;51.478;5.692;2023-12-20T00:37:21;16.08;;;3.10;;
42832;SDS011;64089;51.478;5.692;2023-12-20T00:39:47;14.25;;;3.42;;
42832;SDS011;64089;51.478;5.692;2023-12-20T00:42:13;11.65;;;2.85;;
42832;SDS011;64089;51.478;5.692;2023-12-20T00:44:38;21.70;;;2.22;;
42832;SDS011;64089;51.478;5.692;2023-12-20T00:47:05;10.00;;;2.78;;
42832;SDS011;64089;51.478;5.692;2023-12-20T00:49:31;17.08;;;2.72;;
42832;SDS011;64089;51.478;5.692;2023-12-20T00:51:56;8.02;;;2.55;;
42832;SDS011;64089;51.478;5.692;2023-12-20T00:54:22;12.55;;;3.53;;
42832;SDS011;64089;51.478;5.692;2023-12-20T00:56:47;24.85;;;2.65;;
42832;SDS011;64089;51.478;5.692;2023-12-20T00:59:13;17.15;;;2.03;;
42832;SDS011;64089;51.478;5.692;2023-12-20T01:01:40;6.78;;;2.20;;
42832;SDS011;64089;51.478;5.692;2023-12-20T01:04:07;9.63;;;2.80;;
42832;SDS011;64089;51.478;5.692;2023-12-20T01:06:32;6.82;;;2.08;;
42832;SDS011;64089;51.478;5.692;2023-12-20T01:08:58;9.23;;;2.03;;
42832;SDS011;64089;51.478;5.692;2023-12-20T01:11:23;15.20;;;2.25;;
42832;SDS011;64089;51.478;5.692;2023-12-20T01:13:49;11.90;;;2.15;;
42832;SDS011;64089;51.478;5.692;2023-12-20T01:16:14;12.73;;;2.25;;
42832;SDS011;64089;51.478;5.692;2023-12-20T01:18:40;6.90;;;2.13;;
42832;SDS011;64089;51.478;5.692;2023-12-20T01:21:06;6.40;;;2.20;;
42832;SDS011;64089;51.478;5.692;2023-12-20T01:23:32;14.55;;;2.70;;
42832;SDS011;64089;51.478;5.692;2023-12-20T01:25:58;9.35;;;1.30;;
42832;SDS011;64089;51.478;5.692;2023-12-20T01:28:25;5.90;;;2.20;;
42832;SDS011;64089;51.478;5.692;2023-12-20T01:30:50;2.80;;;1.67;;
42832;SDS011;64089;51.478;5.692;2023-12-20T01:33:16;14.52;;;1.90;;
42832;SDS011;64089;51.478;5.692;2023-12-20T01:35:41;12.90;;;1.95;;
42832;SDS011;64089;51.478;5.692;2023-12-20T01:38:07;18.80;;;1.85;;
42832;SDS011;64089;51.478;5.692;2023-12-20T01:40:34;16.65;;;3.15;;
42832;SDS011;64089;51.478;5.692;2023-12-20T01:43:00;7.60;;;1.90;;
42832;SDS011;64089;51.478;5.692;2023-12-20T01:45:27;7.85;;;1.63;;
42832;SDS011;64089;51.478;5.692;2023-12-20T01:47:53;11.30;;;2.13;;
42832;SDS011;64089;51.478;5.692;2023-12-20T01:50:20;16.23;;;2.30;;
42832;SDS011;64089;51.478;5.692;2023-12-20T01:52:46;7.72;;;1.52;;
42832;SDS011;64089;51.478;5.692;2023-12-20T01:55:13;16.50;;;2.90;;
42832;SDS011;64089;51.478;5.692;2023-12-20T01:57:43;11.45;;;1.95;;
42832;SDS011;64089;51.478;5.692;2023-12-20T02:00:10;17.95;;;1.98;;
42832;SDS011;64089;51.478;5.692;2023-12-20T02:02:37;11.30;;;0.90;;
42832;SDS011;64089;51.478;5.692;2023-12-20T02:05:05;16.63;;;2.30;;
42832;SDS011;64089;51.478;5.692;2023-12-20T02:07:34;17.00;;;2.35;;
42832;SDS011;64089;51.478;5.692;2023-12-20T02:10:03;8.88;;;1.88;;
42832;SDS011;64089;51.478;5.692;2023-12-20T02:12:29;12.55;;;2.08;;
42832;SDS011;64089;51.478;5.692;2023-12-20T02:14:55;10.05;;;1.88;;
42832;SDS011;64089;51.478;5.692;2023-12-20T02:17:21;11.35;;;2.58;;
42832;SDS011;64089;51.478;5.692;2023-12-20T02:19:47;2.78;;;1.38;;
42832;SDS011;64089;51.478;5.692;2023-12-20T02:22:13;10.48;;;2.38;;
42832;SDS011;64089;51.478;5.692;2023-12-20T02:24:38;14.68;;;2.25;;
42832;SDS011;64089;51.478;5.692;2023-12-20T02:27:05;12.68;;;2.05;;
42832;SDS011;64089;51.478;5.692;2023-12-20T02:29:32;13.65;;;1.67;;
42832;SDS011;64089;51.478;5.692;2023-12-20T02:31:59;4.95;;;2.30;;
42832;SDS011;64089;51.478;5.692;2023-12-20T02:34:24;12.65;;;1.77;;
42832;SDS011;64089;51.478;5.692;2023-12-20T02:36:50;8.80;;;1.80;;
42832;SDS011;64089;51.478;5.692;2023-12-20T02:39:16;18.90;;;1.90;;
42832;SDS011;64089;51.478;5.692;2023-12-20T02:41:41;11.60;;;2.28;;
42832;SDS011;64089;51.478;5.692;2023-12-20T02:44:07;14.25;;;2.47;;
42832;SDS011;64089;51.478;5.692;2023-12-20T02:46:33;7.30;;;2.83;;
42832;SDS011;64089;51.478;5.692;2023-12-20T02:48:58;11.43;;;2.03;;
42832;SDS011;64089;51.478;5.692;2023-12-20T02:51:24;11.38;;;2.38;;
42832;SDS011;64089;51.478;5.692;2023-12-20T02:53:50;14.60;;;2.88;;
42832;SDS011;64089;51.478;5.692;2023-12-20T02:56:15;11.93;;;2.45;;
42832;SDS011;64089;51.478;5.692;2023-12-20T02:58:41;6.63;;;1.67;;
42832;SDS011;64089;51.478;5.692;2023-12-20T03:01:07;8.35;;;1.83;;
42832;SDS011;64089;51.478;5.692;2023-12-20T03:03:32;13.13;;;1.75;;
42832;SDS011;64089;51.478;5.692;2023-12-20T03:05:58;11.55;;;3.50;;
42832;SDS011;64089;51.478;5.692;2023-12-20T03:08:24;5.97;;;1.63;;
42832;SDS011;64089;51.478;5.692;2023-12-20T03:10:50;9.77;;;2.47;;
42832;SDS011;64089;51.478;5.692;2023-12-20T03:13:16;13.45;;;2.38;;
42832;SDS011;64089;51.478;5.692;2023-12-20T03:15:41;7.07;;;2.42;;
42832;SDS011;64089;51.478;5.692;2023-12-20T03:18:07;8.82;;;2.10;;
42832;SDS011;64089;51.478;5.692;2023-12-20T03:20:33;5.85;;;2.95;;
42832;SDS011;64089;51.478;5.692;2023-12-20T03:23:02;15.73;;;2.03;;
42832;SDS011;64089;51.478;5.692;2023-12-20T03:25:28;13.93;;;2.90;;
42832;SDS011;64089;51.478;5.692;2023-12-20T03:27:53;8.45;;;1.95;;
42832;SDS011;64089;51.478;5.692;2023-12-20T03:30:19;4.35;;;1.80;;
42832;SDS011;64089;51.478;5.692;2023-12-20T03:32:45;9.02;;;1.85;;
42832;SDS011;64089;51.478;5.692;2023-12-20T03:35:10;12.60;;;2.50;;
42832;SDS011;64089;51.478;5.692;2023-12-20T03:37:36;13.00;;;2.28;;
42832;SDS011;64089;51.478;5.692;2023-12-20T03:40:02;10.32;;;2.05;;
42832;SDS011;64089;51.478;5.692;2023-12-20T03:42:28;17.50;;;2.03;;
42832;SDS011;64089;51.478;5.692;2023-12-20T03:44:53;13.35;;;2.22;;
42832;SDS011;64089;51.478;5.692;2023-12-20T03:47:19;15.73;;;2.80;;
42832;SDS011;64089;51.478;5.692;2023-12-20T03:49:44;11.52;;;3.10;;
42832;SDS011;64089;51.478;5.692;2023-12-20T03:52:10;7.75;;;2.10;;
42832;SDS011;64089;51.478;5.692;2023-12-20T03:54:35;6.70;;;2.80;;
42832;SDS011;64089;51.478;5.692;2023-12-20T03:57:01;14.65;;;3.00;;
42832;SDS011;64089;51.478;5.692;2023-12-20T03:59:27;7.53;;;2.90;;
42832;SDS011;64089;51.478;5.692;2023-12-20T04:01:52;8.95;;;2.35;;
42832;SDS011;64089;51.478;5.692;2023-12-20T04:04:18;11.82;;;3.17;;
42832;SDS011;64089;51.478;5.692;2023-12-20T04:06:44;8.77;;;3.13;;
42832;SDS011;64089;51.478;5.692;2023-12-20T04:09:10;18.50;;;3.25;;
42832;SDS011;64089;51.478;5.692;2023-12-20T04:11:36;8.73;;;2.63;;
42832;SDS011;64089;51.478;5.692;2023-12-20T04:14:01;4.80;;;2.10;;
42832;SDS011;64089;51.478;5.692;2023-12-20T04:16:27;12.20;;;2.45;;
42832;SDS011;64089;51.478;5.692;2023-12-20T04:18:53;11.20;;;3.17;;
42832;SDS011;64089;51.478;5.692;2023-12-20T04:21:18;17.55;;;2.78;;
42832;SDS011;64089;51.478;5.692;2023-12-20T04:23:44;13.23;;;2.92;;
42832;SDS011;64089;51.478;5.692;2023-12-20T04:26:10;7.07;;;2.38;;
42832;SDS011;64089;51.478;5.692;2023-12-20T04:28:36;19.30;;;3.30;;
42832;SDS011;64089;51.478;5.692;2023-12-20T04:31:01;8.73;;;3.25;;
42832;SDS011;64089;51.478;5.692;2023-12-20T04:33:27;8.85;;;2.85;;
42832;SDS011;64089;51.478;5.692;2023-12-20T04:35:52;19.00;;;3.05;;
42832;SDS011;64089;51.478;5.692;2023-12-20T04:38:18;7.88;;;3.50;;
42832;SDS011;64089;51.478;5.692;2023-12-20T04:40:43;16.75;;;3.17;;
42832;SDS011;64089;51.478;5.692;2023-12-20T04:43:09;9.70;;;2.60;;
42832;SDS011;64089;51.478;5.692;2023-12-20T04:45:35;11.90;;;2.75;;
42832;SDS011;64089;51.478;5.692;2023-12-20T04:48:01;17.48;;;3.42;;
42832;SDS011;64089;51.478;5.692;2023-12-20T04:50:27;17.05;;;3.33;;
42832;SDS011;64089;51.478;5.692;2023-12-20T04:52:53;10.18;;;3.00;;
42832;SDS011;64089;51.478;5.692;2023-12-20T04:55:19;8.82;;;2.60;;
42832;SDS011;64089;51.478;5.692;2023-12-20T04:57:45;14.38;;;3.75;;
42832;SDS011;64089;51.478;5.692;2023-12-20T05:00:10;10.85;;;2.92;;
42832;SDS011;64089;51.478;5.692;2023-12-20T05:02:40;6.43;;;2.58;;
42832;SDS011;64089;51.478;5.692;2023-12-20T05:05:06;11.35;;;2.67;;
42832;SDS011;64089;51.478;5.692;2023-12-20T05:07:32;10.75;;;2.67;;
42832;SDS011;64089;51.478;5.692;2023-12-20T05:09:58;9.45;;;2.78;;
42832;SDS011;64089;51.478;5.692;2023-12-20T05:12:24;16.20;;;3.08;;
42832;SDS011;64089;51.478;5.692;2023-12-20T05:14:51;13.68;;;2.78;;
42832;SDS011;64089;51.478;5.692;2023-12-20T05:17:17;15.77;;;3.38;;
42832;SDS011;64089;51.478;5.692;2023-12-20T05:19:43;10.43;;;2.85;;
42832;SDS011;64089;51.478;5.692;2023-12-20T05:22:08;9.75;;;2.67;;
42832;SDS011;64089;51.478;5.692;2023-12-20T05:24:34;15.32;;;2.85;;
42832;SDS011;64089;51.478;5.692;2023-12-20T05:27:00;9.73;;;3.97;;
42832;SDS011;64089;51.478;5.692;2023-12-20T05:29:25;16.83;;;2.88;;
42832;SDS011;64089;51.478;5.692;2023-12-20T05:31:51;13.18;;;3.40;;
42832;SDS011;64089;51.478;5.692;2023-12-20T05:34:17;10.60;;;2.85;;
42832;SDS011;64089;51.478;5.692;2023-12-20T05:36:42;13.07;;;3.05;;
42832;SDS011;64089;51.478;5.692;2023-12-20T05:39:08;16.65;;;3.28;;
42832;SDS011;64089;51.478;5.692;2023-12-20T05:41:33;16.13;;;3.65;;
42832;SDS011;64089;51.478;5.692;2023-12-20T05:43:59;15.45;;;4.50;;
42832;SDS011;64089;51.478;5.692;2023-12-20T05:46:25;17.85;;;3.10;;
42832;SDS011;64089;51.478;5.692;2023-12-20T05:48:51;15.63;;;3.92;;
42832;SDS011;64089;51.478;5.692;2023-12-20T05:51:17;18.90;;;2.95;;
42832;SDS011;64089;51.478;5.692;2023-12-20T05:53:43;17.80;;;3.80;;
42832;SDS011;64089;51.478;5.692;2023-12-20T05:56:09;15.93;;;3.28;;
42832;SDS011;64089;51.478;5.692;2023-12-20T05:58:35;18.67;;;3.50;;
42832;SDS011;64089;51.478;5.692;2023-12-20T06:01:01;13.40;;;3.60;;
42832;SDS011;64089;51.478;5.692;2023-12-20T06:03:29;18.45;;;3.22;;
42832;SDS011;64089;51.478;5.692;2023-12-20T06:05:54;16.38;;;3.80;;
42832;SDS011;64089;51.478;5.692;2023-12-20T06:08:20;13.20;;;3.50;;
42832;SDS011;64089;51.478;5.692;2023-12-20T06:10:46;20.85;;;2.90;;
42832;SDS011;64089;51.478;5.692;2023-12-20T06:13:11;11.73;;;3.65;;
42832;SDS011;64089;51.478;5.692;2023-12-20T06:15:38;22.98;;;4.50;;
42832;SDS011;64089;51.478;5.692;2023-12-20T06:18:05;13.80;;;3.72;;
42832;SDS011;64089;51.478;5.692;2023-12-20T06:20:31;12.30;;;3.15;;
42832;SDS011;64089;51.478;5.692;2023-12-20T06:22:57;13.95;;;2.97;;
42832;SDS011;64089;51.478;5.692;2023-12-20T06:25:23;13.38;;;3.15;;
42832;SDS011;64089;51.478;5.692;2023-12-20T06:27:48;17.20;;;3.47;;
42832;SDS011;64089;51.478;5.692;2023-12-20T06:30:15;17.08;;;3.30;;
42832;SDS011;64089;51.478;5.692;2023-12-20T06:32:41;8.25;;;2.55;;
42832;SDS011;64089;51.478;5.692;2023-12-20T06:35:07;14.70;;;2.95;;
42832;SDS011;64089;51.478;5.692;2023-12-20T06:37:36;23.67;;;3.55;;
42832;SDS011;64089;51.478;5.692;2023-12-20T06:40:01;13.85;;;4.28;;
42832;SDS011;64089;51.478;5.692;2023-12-20T06:42:27;15.98;;;3.10;;
42832;SDS011;64089;51.478;5.692;2023-12-20T06:44:53;10.50;;;3.17;;
42832;SDS011;64089;51.478;5.692;2023-12-20T06:47:18;14.18;;;2.85;;
42832;SDS011;64089;51.478;5.692;2023-12-20T06:49:44;12.02;;;2.25;;
42832;SDS011;64089;51.478;5.692;2023-12-20T06:52:09;7.00;;;2.47;;
42832;SDS011;64089;51.478;5.692;2023-12-20T06:54:35;8.13;;;2.50;;
42832;SDS011;64089;51.478;5.692;2023-12-20T06:57:01;15.23;;;2.75;;
42832;SDS011;64089;51.478;5.692;2023-12-20T06:59:28;14.57;;;3.33;;
42832;SDS011;64089;51.478;5.692;2023-12-20T07:01:54;11.25;;;2.72;;
42832;SDS011;64089;51.478;5.692;2023-12-20T07:04:19;5.25;;;2.65;;
42832;SDS011;64089;51.478;5.692;2023-12-20T07:06:47;8.07;;;2.67;;
42832;SDS011;64089;51.478;5.692;2023-12-20T07:09:13;7.93;;;2.67;;
42832;SDS011;64089;51.478;5.692;2023-12-20T07:11:38;15.07;;;4.18;;
42832;SDS011;64089;51.478;5.692;2023-12-20T07:14:04;9.45;;;2.60;;
42832;SDS011;64089;51.478;5.692;2023-12-20T07:16:30;12.32;;;3.30;;
42832;SDS011;64089;51.478;5.692;2023-12-20T07:18:56;11.60;;;2.38;;
42832;SDS011;64089;51.478;5.692;2023-12-20T07:21:22;11.45;;;2.40;;
42832;SDS011;64089;51.478;5.692;2023-12-20T07:23:48;16.40;;;2.63;;
42832;SDS011;64089;51.478;5.692;2023-12-20T07:26:13;9.15;;;2.65;;
42832;SDS011;64089;51.478;5.692;2023-12-20T07:28:40;12.80;;;2.85;;
42832;SDS011;64089;51.478;5.692;2023-12-20T07:31:05;22.02;;;3.50;;
42832;SDS011;64089;51.478;5.692;2023-12-20T07:33:31;7.15;;;2.85;;
42832;SDS011;64089;51.478;5.692;2023-12-20T07:35:57;14.52;;;2.50;;
42832;SDS011;64089;51.478;5.692;2023-12-20T07:38:24;14.50;;;3.05;;
42832;SDS011;64089;51.478;5.692;2023-12-20T07:40:50;17.17;;;2.30;;
42832;SDS011;64089;51.478;5.692;2023-12-20T07:43:15;9.98;;;3.97;;
42832;SDS011;64089;51.478;5.692;2023-12-20T07:45:41;11.65;;;4.18;;
42832;SDS011;64089;51.478;5.692;2023-12-20T07:48:07;9.88;;;2.60;;
42832;SDS011;64089;51.478;5.692;2023-12-20T07:50:32;16.00;;;3.25;;
42832;SDS011;64089;51.478;5.692;2023-12-20T07:52:58;17.17;;;2.88;;
42832;SDS011;64089;51.478;5.692;2023-12-20T07:55:25;17.67;;;2.70;;
42832;SDS011;64089;51.478;5.692;2023-12-20T07:57:51;9.02;;;3.15;;
42832;SDS011;64089;51.478;5.692;2023-12-20T08:00:17;15.45;;;2.33;;
42832;SDS011;64089;51.478;5.692;2023-12-20T08:02:43;13.13;;;2.75;;
42832;SDS011;64089;51.478;5.692;2023-12-20T08:05:09;18.67;;;2.40;;
42832;SDS011;64089;51.478;5.692;2023-12-20T08:07:35;13.90;;;2.40;;
42832;SDS011;64089;51.478;5.692;2023-12-20T08:10:01;10.60;;;2.72;;
42832;SDS011;64089;51.478;5.692;2023-12-20T08:12:27;10.05;;;2.53;;
42832;SDS011;64089;51.478;5.692;2023-12-20T08:14:53;14.43;;;3.03;;
42832;SDS011;64089;51.478;5.692;2023-12-20T08:17:19;7.35;;;2.17;;
42832;SDS011;64089;51.478;5.692;2023-12-20T08:19:45;20.70;;;2.38;;
42832;SDS011;64089;51.478;5.692;2023-12-20T08:22:11;12.30;;;2.42;;
42832;SDS011;64089;51.478;5.692;2023-12-20T08:24:36;12.40;;;2.67;;
42832;SDS011;64089;51.478;5.692;2023-12-20T08:27:03;17.25;;;2.53;;
42832;SDS011;64089;51.478;5.692;2023-12-20T08:29:29;11.93;;;2.40;;
42832;SDS011;64089;51.478;5.692;2023-12-20T08:31:55;15.05;;;2.70;;
42832;SDS011;64089;51.478;5.692;2023-12-20T08:34:21;23.80;;;2.20;;
42832;SDS011;64089;51.478;5.692;2023-12-20T08:36:46;5.70;;;2.10;;
42832;SDS011;64089;51.478;5.692;2023-12-20T08:39:12;14.35;;;2.65;;
42832;SDS011;64089;51.478;5.692;2023-12-20T08:41:38;13.60;;;2.08;;
42832;SDS011;64089;51.478;5.692;2023-12-20T08:44:03;5.93;;;1.85;;
42832;SDS011;64089;51.478;5.692;2023-12-20T08:46:29;12.93;;;2.33;;
42832;SDS011;64089;51.478;5.692;2023-12-20T08:48:55;9.00;;;2.13;;
42832;SDS011;64089;51.478;5.692;2023-12-20T08:51:20;19.33;;;2.63;;
42832;SDS011;64089;51.478;5.692;2023-12-20T08:53:48;9.07;;;2.25;;
42832;SDS011;64089;51.478;5.692;2023-12-20T08:56:14;12.32;;;2.33;;
42832;SDS011;64089;51.478;5.692;2023-12-20T08:58:40;11.20;;;2.22;;
42832;SDS011;64089;51.478;5.692;2023-12-20T09:01:06;17.35;;;2.83;;
42832;SDS011;64089;51.478;5.692;2023-12-20T09:03:32;8.98;;;2.42;;
42832;SDS011;64089;51.478;5.692;2023-12-20T09:05:58;7.85;;;2.45;;
42832;SDS011;64089;51.478;5.692;2023-12-20T09:08:23;9.57;;;2.67;;
42832;SDS011;64089;51.478;5.692;2023-12-20T09:10:49;11.98;;;2.05;;
42832;SDS011;64089;51.478;5.692;2023-12-20T09:13:15;10.63;;;2.83;;
42832;SDS011;64089;51.478;5.692;2023-12-20T09:15:40;12.07;;;3.08;;
42832;SDS011;64089;51.478;5.692;2023-12-20T09:18:06;9.60;;;1.98;;
42832;SDS011;64089;51.478;5.692;2023-12-20T09:20:32;14.93;;;2.33;;
42832;SDS011;64089;51.478;5.692;2023-12-20T09:22:58;5.60;;;1.83;;
42832;SDS011;64089;51.478;5.692;2023-12-20T09:25:24;7.80;;;1.98;;
42832;SDS011;64089;51.478;5.692;2023-12-20T09:27:51;13.55;;;4.05;;
42832;SDS011;64089;51.478;5.692;2023-12-20T09:30:17;39.67;;;14.70;;
42832;SDS011;64089;51.478;5.692;2023-12-20T09:32:43;56.55;;;13.77;;
42832;SDS011;64089;51.478;5.692;2023-12-20T09:35:09;26.15;;;9.63;;
42832;SDS011;64089;51.478;5.692;2023-12-20T09:37:34;23.98;;;6.65;;
42832;SDS011;64089;51.478;5.692;2023-12-20T09:40:00;14.73;;;3.83;;
42832;SDS011;64089;51.478;5.692;2023-12-20T09:42:39;10.57;;;2.58;;
42832;SDS011;64089;51.478;5.692;2023-12-20T09:45:28;10.02;;;2.42;;
42832;SDS011;64089;51.478;5.692;2023-12-20T09:47:56;12.85;;;2.05;;
42832;SDS011;64089;51.478;5.692;2023-12-20T09:50:23;10.65;;;1.63;;
42832;SDS011;64089;51.478;5.692;2023-12-20T09:52:52;11.82;;;2.03;;
42832;SDS011;64089;51.478;5.692;2023-12-20T09:55:19;11.40;;;2.15;;
42832;SDS011;64089;51.478;5.692;2023-12-20T09:57:47;21.13;;;2.42;;
42832;SDS011;64089;51.478;5.692;2023-12-20T10:00:14;9.73;;;2.80;;
42832;SDS011;64089;51.478;5.692;2023-12-20T10:02:42;11.57;;;1.70;;
42832;SDS011;64089;51.478;5.692;2023-12-20T10:05:15;13.75;;;2.63;;
42832;SDS011;64089;51.478;5.692;2023-12-20T10:07:46;8.20;;;2.40;;
42832;SDS011;64089;51.478;5.692;2023-12-20T10:10:13;10.35;;;2.35;;
42832;SDS011;64089;51.478;5.692;2023-12-20T10:12:38;9.68;;;3.03;;
42832;SDS011;64089;51.478;5.692;2023-12-20T10:15:05;7.45;;;2.13;;
42832;SDS011;64089;51.478;5.692;2023-12-20T10:17:31;17.33;;;2.67;;
42832;SDS011;64089;51.478;5.692;2023-12-20T10:19:57;6.53;;;2.47;;
42832;SDS011;64089;51.478;5.692;2023-12-20T10:22:23;39.38;;;13.13;;
42832;SDS011;64089;51.478;5.692;2023-12-20T10:24:49;23.45;;;8.10;;
42832;SDS011;64089;51.478;5.692;2023-12-20T10:27:14;41.22;;;14.75;;
42832;SDS011;64089;51.478;5.692;2023-12-20T10:29:44;24.55;;;7.50;;
42832;SDS011;64089;51.478;5.692;2023-12-20T10:32:23;14.25;;;2.38;;
42832;SDS011;64089;51.478;5.692;2023-12-20T10:34:49;8.40;;;2.38;;
42832;SDS011;64089;51.478;5.692;2023-12-20T10:37:15;7.93;;;2.80;;
42832;SDS011;64089;51.478;5.692;2023-12-20T10:39:41;6.57;;;2.35;;
42832;SDS011;64089;51.478;5.692;2023-12-20T10:42:11;6.32;;;2.20;;
42832;SDS011;64089;51.478;5.692;2023-12-20T10:44:38;6.75;;;1.88;;
42832;SDS011;64089;51.478;5.692;2023-12-20T10:47:04;16.23;;;2.40;;
42832;SDS011;64089;51.478;5.692;2023-12-20T10:49:31;17.42;;;2.67;;
42832;SDS011;64089;51.478;5.692;2023-12-20T10:52:01;4.10;;;1.80;;
42832;SDS011;64089;51.478;5.692;2023-12-20T10:54:29;19.58;;;3.22;;
42832;SDS011;64089;51.478;5.692;2023-12-20T10:56:55;11.02;;;2.15;;
42832;SDS011;64089;51.478;5.692;2023-12-20T10:59:22;16.60;;;3.33;;
42832;SDS011;64089;51.478;5.692;2023-12-20T11:01:50;10.98;;;2.30;;
42832;SDS011;64089;51.478;5.692;2023-12-20T11:04:20;12.50;;;1.98;;
42832;SDS011;64089;51.478;5.692;2023-12-20T11:06:54;11.38;;;1.90;;
42832;SDS011;64089;51.478;5.692;2023-12-20T11:09:26;10.57;;;2.35;;
42832;SDS011;64089;51.478;5.692;2023-12-20T11:17:16;7.30;;;1.70;;
42832;SDS011;64089;51.478;5.692;2023-12-20T11:22:17;5.65;;;1.58;;
42832;SDS011;64089;51.478;5.692;2023-12-20T11:24:46;10.43;;;2.45;;
42832;SDS011;64089;51.478;5.692;2023-12-20T11:27:13;14.38;;;3.03;;
42832;SDS011;64089;51.478;5.692;2023-12-20T11:29:38;18.92;;;3.58;;
42832;SDS011;64089;51.478;5.692;2023-12-20T11:34:50;23.30;;;7.45;;
42832;SDS011;64089;51.478;5.692;2023-12-20T11:37:16;37.05;;;17.65;;
42832;SDS011;64089;51.478;5.692;2023-12-20T11:39:44;21.42;;;7.30;;
42832;SDS011;64089;51.478;5.692;2023-12-20T11:42:09;12.50;;;2.72;;
42832;SDS011;64089;51.478;5.692;2023-12-20T11:44:36;13.85;;;2.55;;
42832;SDS011;64089;51.478;5.692;2023-12-20T11:47:02;9.70;;;2.03;;
42832;SDS011;64089;51.478;5.692;2023-12-20T11:49:28;11.95;;;2.58;;
42832;SDS011;64089;51.478;5.692;2023-12-20T11:51:55;14.55;;;2.63;;
42832;SDS011;64089;51.478;5.692;2023-12-20T11:54:21;7.90;;;2.92;;
42832;SDS011;64089;51.478;5.692;2023-12-20T11:56:47;14.43;;;4.40;;
42832;SDS011;64089;51.478;5.692;2023-12-20T11:59:13;12.98;;;2.90;;
42832;SDS011;64089;51.478;5.692;2023-12-20T12:01:39;19.67;;;3.22;;
42832;SDS011;64089;51.478;5.692;2023-12-20T12:04:05;16.58;;;3.85;;
42832;SDS011;64089;51.478;5.692;2023-12-20T12:06:31;8.00;;;2.00;;
42832;SDS011;64089;51.478;5.692;2023-12-20T12:08:57;4.50;;;2.50;;
42832;SDS011;64089;51.478;5.692;2023-12-20T12:11:23;6.90;;;2.80;;
42832;SDS011;64089;51.478;5.692;2023-12-20T12:13:49;16.50;;;4.00;;
42832;SDS011;64089;51.478;5.692;2023-12-20T12:16:17;11.13;;;2.35;;
42832;SDS011;64089;51.478;5.692;2023-12-20T12:18:44;11.23;;;3.35;;
42832;SDS011;64089;51.478;5.692;2023-12-20T12:21:10;8.88;;;2.47;;
42832;SDS011;64089;51.478;5.692;2023-12-20T12:23:43;7.03;;;2.30;;
42832;SDS011;64089;51.478;5.692;2023-12-20T12:26:09;13.10;;;3.00;;
42832;SDS011;64089;51.478;5.692;2023-12-20T12:28:34;7.10;;;2.92;;
42832;SDS011;64089;51.478;5.692;2023-12-20T12:31:00;11.90;;;2.38;;
42832;SDS011;64089;51.478;5.692;2023-12-20T12:33:26;13.98;;;2.67;;
42832;SDS011;64089;51.478;5.692;2023-12-20T12:35:52;15.75;;;3.03;;
42832;SDS011;64089;51.478;5.692;2023-12-20T12:38:21;12.68;;;3.83;;
42832;SDS011;64089;51.478;5.692;2023-12-20T12:40:47;16.20;;;2.78;;
42832;SDS011;64089;51.478;5.692;2023-12-20T12:43:12;11.00;;;3.03;;
42832;SDS011;64089;51.478;5.692;2023-12-20T12:45:38;12.98;;;3.35;;
42832;SDS011;64089;51.478;5.692;2023-12-20T12:48:04;8.45;;;3.08;;
42832;SDS011;64089;51.478;5.692;2023-12-20T12:50:30;10.60;;;3.28;;
42832;SDS011;64089;51.478;5.692;2023-12-20T12:52:56;17.90;;;4.95;;
42832;SDS011;64089;51.478;5.692;2023-12-20T12:55:21;6.72;;;2.72;;
42832;SDS011;64089;51.478;5.692;2023-12-20T12:57:47;17.83;;;4.03;;
42832;SDS011;64089;51.478;5.692;2023-12-20T13:00:13;17.33;;;3.88;;
42832;SDS011;64089;51.478;5.692;2023-12-20T13:02:39;20.33;;;4.18;;
42832;SDS011;64089;51.478;5.692;2023-12-20T13:05:07;19.55;;;4.80;;
42832;SDS011;64089;51.478;5.692;2023-12-20T13:07:33;11.15;;;4.68;;
42832;SDS011;64089;51.478;5.692;2023-12-20T13:09:59;16.20;;;4.05;;
42832;SDS011;64089;51.478;5.692;2023-12-20T13:12:25;18.35;;;5.25;;
42832;SDS011;64089;51.478;5.692;2023-12-20T13:14:51;13.75;;;4.97;;
42832;SDS011;64089;51.478;5.692;2023-12-20T13:17:16;12.45;;;3.95;;
42832;SDS011;64089;51.478;5.692;2023-12-20T13:19:42;12.90;;;3.80;;
42832;SDS011;64089;51.478;5.692;2023-12-20T13:22:08;12.55;;;4.93;;
42832;SDS011;64089;51.478;5.692;2023-12-20T13:24:34;13.07;;;4.70;;
42832;SDS011;64089;51.478;5.692;2023-12-20T13:26:59;20.70;;;4.55;;
42832;SDS011;64089;51.478;5.692;2023-12-20T13:29:25;11.75;;;3.97;;
42832;SDS011;64089;51.478;5.692;2023-12-20T13:31:52;9.25;;;3.95;;
42832;SDS011;64089;51.478;5.692;2023-12-20T13:34:18;32.42;;;5.65;;
42832;SDS011;64089;51.478;5.692;2023-12-20T13:36:44;18.13;;;4.30;;
42832;SDS011;64089;51.478;5.692;2023-12-20T13:39:14;22.02;;;4.88;;
42832;SDS011;64089;51.478;5.692;2023-12-20T13:41:40;23.92;;;5.07;;
42832;SDS011;64089;51.478;5.692;2023-12-20T13:44:06;20.90;;;5.00;;
42832;SDS011;64089;51.478;5.692;2023-12-20T13:46:31;12.32;;;5.82;;
42832;SDS011;64089;51.478;5.692;2023-12-20T13:48:57;11.88;;;4.50;;
42832;SDS011;64089;51.478;5.692;2023-12-20T13:51:22;19.15;;;3.50;;
42832;SDS011;64089;51.478;5.692;2023-12-20T13:53:48;12.02;;;3.95;;
42832;SDS011;64089;51.478;5.692;2023-12-20T13:56:14;12.73;;;4.35;;
42832;SDS011;64089;51.478;5.692;2023-12-20T13:58:40;11.55;;;4.45;;
42832;SDS011;64089;51.478;5.692;2023-12-20T14:01:11;10.35;;;3.83;;
42832;SDS011;64089;51.478;5.692;2023-12-20T14:03:37;8.25;;;3.47;;
42832;SDS011;64089;51.478;5.692;2023-12-20T14:06:02;15.27;;;2.95;;
42832;SDS011;64089;51.478;5.692;2023-12-20T14:08:28;8.43;;;3.25;;
42832;SDS011;64089;51.478;5.692;2023-12-20T14:10:54;9.85;;;3.60;;
42832;SDS011;64089;51.478;5.692;2023-12-20T14:13:19;11.13;;;3.05;;
42832;SDS011;64089;51.478;5.692;2023-12-20T14:15:46;12.48;;;3.70;;
42832;SDS011;64089;51.478;5.692;2023-12-20T14:18:12;13.07;;;3.22;;
42832;SDS011;64089;51.478;5.692;2023-12-20T14:20:39;9.68;;;3.83;;
42832;SDS011;64089;51.478;5.692;2023-12-20T14:23:07;11.48;;;3.55;;
42832;SDS011;64089;51.478;5.692;2023-12-20T14:25:34;15.30;;;3.25;;
42832;SDS011;64089;51.478;5.692;2023-12-20T14:28:02;7.05;;;2.40;;
42832;SDS011;64089;51.478;5.692;2023-12-20T14:30:31;11.32;;;4.13;;
42832;SDS011;64089;51.478;5.692;2023-12-20T14:32:57;10.73;;;3.30;;
42832;SDS011;64089;51.478;5.692;2023-12-20T14:35:23;15.23;;;4.60;;
42832;SDS011;64089;51.478;5.692;2023-12-20T14:37:49;14.57;;;3.17;;
42832;SDS011;64089;51.478;5.692;2023-12-20T14:40:15;7.65;;;2.40;;
42832;SDS011;64089;51.478;5.692;2023-12-20T14:42:44;10.38;;;3.15;;